sensor_id;sensor_type;location;lat;lon;timestamp;temperature;humidity
10459;DHT22;5277;48.722;8.736;2022-11-25T00:01:10;4.10;99.90
10459;DHT22;5277;48.722;8.736;2022-11-25T00:03:37;4.10;99.90
10459;DHT22;5277;48.722;8.736;2022-11-25T00:06:18;4.10;99.90
10459;DHT22;5277;48.722;8.736;2022-11-25T00:08:46;4.00;99.90
10459;DHT22;5277;48.722;8.736;2022-11-25T00:11:13;4.00;99.90
10459;DHT22;5277;48.722;8.736;2022-11-25T00:13:39;3.90;99.90
10459;DHT22;5277;48.722;8.736;2022-11-25T00:16:08;3.90;99.90
10459;DHT22;5277;48.722;8.736;2022-11-25T00:18:34;3.80;99.90
10459;DHT22;5277;48.722;8.736;2022-11-25T00:21:12;3.80;99.90
10459;DHT22;5277;48.722;8.736;2022-11-25T00:23:38;3.90;99.90
10459;DHT22;5277;48.722;8.736;2022-11-25T00:26:14;3.80;99.90
10459;DHT22;5277;48.722;8.736;2022-11-25T00:28:42;3.80;99.90
10459;DHT22;5277;48.722;8.736;2022-11-25T00:33:35;3.80;99.90
10459;DHT22;5277;48.722;8.736;2022-11-25T00:36:03;3.80;99.90
10459;DHT22;5277;48.722;8.736;2022-11-25T00:38:29;3.80;99.90
10459;DHT22;5277;48.722;8.736;2022-11-25T00:40:54;3.80;99.90
10459;DHT22;5277;48.722;8.736;2022-11-25T00:43:40;3.80;99.90
10459;DHT22;5277;48.722;8.736;2022-11-25T00:46:24;3.80;99.90
10459;DHT22;5277;48.722;8.736;2022-11-25T00:48:50;3.80;99.90
10459;DHT22;5277;48.722;8.736;2022-11-25T00:51:15;3.80;99.90
10459;DHT22;5277;48.722;8.736;2022-11-25T00:53:41;3.90;99.90
10459;DHT22;5277;48.722;8.736;2022-11-25T00:56:06;3.80;99.90
10459;DHT22;5277;48.722;8.736;2022-11-25T00:58:38;3.90;99.90
10459;DHT22;5277;48.722;8.736;2022-11-25T01:01:04;3.90;99.90
10459;DHT22;5277;48.722;8.736;2022-11-25T01:03:30;3.90;99.90
10459;DHT22;5277;48.722;8.736;2022-11-25T01:06:00;3.90;99.90
10459;DHT22;5277;48.722;8.736;2022-11-25T01:08:28;3.90;99.90
10459;DHT22;5277;48.722;8.736;2022-11-25T01:11:01;3.90;99.90
10459;DHT22;5277;48.722;8.736;2022-11-25T01:13:27;3.80;99.90
10459;DHT22;5277;48.722;8.736;2022-11-25T01:15:53;3.80;99.90
10459;DHT22;5277;48.722;8.736;2022-11-25T01:18:18;3.80;99.90
10459;DHT22;5277;48.722;8.736;2022-11-25T01:20:44;3.80;99.90
10459;DHT22;5277;48.722;8.736;2022-11-25T01:23:12;3.80;99.90
10459;DHT22;5277;48.722;8.736;2022-11-25T01:25:38;3.90;99.90
10459;DHT22;5277;48.722;8.736;2022-11-25T01:28:04;3.90;99.90
10459;DHT22;5277;48.722;8.736;2022-11-25T01:30:30;3.90;99.90
10459;DHT22;5277;48.722;8.736;2022-11-25T01:32:55;3.80;99.90
10459;DHT22;5277;48.722;8.736;2022-11-25T01:35:21;3.90;99.90
10459;DHT22;5277;48.722;8.736;2022-11-25T01:37:47;3.90;99.90
10459;DHT22;5277;48.722;8.736;2022-11-25T01:40:12;4.00;99.90
10459;DHT22;5277;48.722;8.736;2022-11-25T01:42:42;4.00;99.90
10459;DHT22;5277;48.722;8.736;2022-11-25T01:47:46;4.00;99.90
10459;DHT22;5277;48.722;8.736;2022-11-25T01:50:12;4.00;99.90
10459;DHT22;5277;48.722;8.736;2022-11-25T01:52:44;4.00;99.90
10459;DHT22;5277;48.722;8.736;2022-11-25T01:55:19;4.00;99.90
10459;DHT22;5277;48.722;8.736;2022-11-25T01:57:49;4.00;99.90
10459;DHT22;5277;48.722;8.736;2022-11-25T02:00:16;4.10;99.90
10459;DHT22;5277;48.722;8.736;2022-11-25T02:02:42;4.10;99.90
10459;DHT22;5277;48.722;8.736;2022-11-25T02:05:10;4.10;99.90
10459;DHT22;5277;48.722;8.736;2022-11-25T02:07:39;4.00;99.90
10459;DHT22;5277;48.722;8.736;2022-11-25T02:10:18;4.10;99.90
10459;DHT22;5277;48.722;8.736;2022-11-25T02:12:46;4.00;99.90
10459;DHT22;5277;48.722;8.736;2022-11-25T02:15:13;4.00;99.90
10459;DHT22;5277;48.722;8.736;2022-11-25T02:17:39;3.90;99.90
10459;DHT22;5277;48.722;8.736;2022-11-25T02:20:09;3.90;99.90
10459;DHT22;5277;48.722;8.736;2022-11-25T02:25:16;3.90;99.90
10459;DHT22;5277;48.722;8.736;2022-11-25T02:27:43;3.90;99.90
10459;DHT22;5277;48.722;8.736;2022-11-25T02:30:10;3.90;99.90
10459;DHT22;5277;48.722;8.736;2022-11-25T02:32:44;3.90;99.90
10459;DHT22;5277;48.722;8.736;2022-11-25T02:37:52;3.90;99.90
10459;DHT22;5277;48.722;8.736;2022-11-25T02:40:19;3.90;99.90
10459;DHT22;5277;48.722;8.736;2022-11-25T02:42:46;3.90;99.90
10459;DHT22;5277;48.722;8.736;2022-11-25T02:45:14;3.90;99.90
10459;DHT22;5277;48.722;8.736;2022-11-25T02:47:42;3.90;99.90
10459;DHT22;5277;48.722;8.736;2022-11-25T02:50:07;3.90;99.90
10459;DHT22;5277;48.722;8.736;2022-11-25T02:52:33;3.90;99.90
10459;DHT22;5277;48.722;8.736;2022-11-25T02:54:58;3.90;99.90
10459;DHT22;5277;48.722;8.736;2022-11-25T02:57:24;3.90;99.90
10459;DHT22;5277;48.722;8.736;2022-11-25T02:59:50;3.90;99.90
10459;DHT22;5277;48.722;8.736;2022-11-25T03:02:15;3.90;99.90
10459;DHT22;5277;48.722;8.736;2022-11-25T03:04:41;3.80;99.90
10459;DHT22;5277;48.722;8.736;2022-11-25T03:07:06;3.90;99.90
10459;DHT22;5277;48.722;8.736;2022-11-25T03:09:32;3.80;99.90
10459;DHT22;5277;48.722;8.736;2022-11-25T03:11:57;3.80;99.90
10459;DHT22;5277;48.722;8.736;2022-11-25T03:14:41;3.80;99.90
10459;DHT22;5277;48.722;8.736;2022-11-25T03:17:07;3.80;99.90
10459;DHT22;5277;48.722;8.736;2022-11-25T03:19:32;3.80;99.90
10459;DHT22;5277;48.722;8.736;2022-11-25T03:21:58;3.80;99.90
10459;DHT22;5277;48.722;8.736;2022-11-25T03:24:23;3.70;99.90
10459;DHT22;5277;48.722;8.736;2022-11-25T03:26:49;3.70;99.90
10459;DHT22;5277;48.722;8.736;2022-11-25T03:29:14;3.70;99.90
10459;DHT22;5277;48.722;8.736;2022-11-25T03:31:40;3.70;99.90
10459;DHT22;5277;48.722;8.736;2022-11-25T03:34:06;3.70;99.90
10459;DHT22;5277;48.722;8.736;2022-11-25T03:36:31;3.60;99.90
10459;DHT22;5277;48.722;8.736;2022-11-25T03:38:57;3.60;99.90
10459;DHT22;5277;48.722;8.736;2022-11-25T03:41:22;3.60;99.90
10459;DHT22;5277;48.722;8.736;2022-11-25T03:43:48;3.70;99.90
10459;DHT22;5277;48.722;8.736;2022-11-25T03:46:14;3.70;99.90
10459;DHT22;5277;48.722;8.736;2022-11-25T03:48:40;3.70;99.90
10459;DHT22;5277;48.722;8.736;2022-11-25T03:51:05;3.70;99.90
10459;DHT22;5277;48.722;8.736;2022-11-25T03:53:31;3.80;99.90
10459;DHT22;5277;48.722;8.736;2022-11-25T03:55:56;3.80;99.90
10459;DHT22;5277;48.722;8.736;2022-11-25T03:58:22;3.70;99.90
10459;DHT22;5277;48.722;8.736;2022-11-25T04:00:48;3.70;99.90
10459;DHT22;5277;48.722;8.736;2022-11-25T04:03:13;3.70;99.90
10459;DHT22;5277;48.722;8.736;2022-11-25T04:05:39;3.70;99.90
10459;DHT22;5277;48.722;8.736;2022-11-25T04:08:05;3.70;99.90
10459;DHT22;5277;48.722;8.736;2022-11-25T04:10:31;3.70;99.90
10459;DHT22;5277;48.722;8.736;2022-11-25T04:12:56;3.60;99.90
10459;DHT22;5277;48.722;8.736;2022-11-25T04:15:22;3.70;99.90
10459;DHT22;5277;48.722;8.736;2022-11-25T04:17:48;3.70;99.90
10459;DHT22;5277;48.722;8.736;2022-11-25T04:20:14;3.70;99.90
10459;DHT22;5277;48.722;8.736;2022-11-25T04:22:39;3.70;99.90
10459;DHT22;5277;48.722;8.736;2022-11-25T04:25:06;3.70;99.90
10459;DHT22;5277;48.722;8.736;2022-11-25T04:27:31;3.70;99.90
10459;DHT22;5277;48.722;8.736;2022-11-25T04:29:57;3.70;99.90
10459;DHT22;5277;48.722;8.736;2022-11-25T04:32:23;3.70;99.90
10459;DHT22;5277;48.722;8.736;2022-11-25T04:34:48;3.60;99.90
10459;DHT22;5277;48.722;8.736;2022-11-25T04:37:14;3.60;99.90
10459;DHT22;5277;48.722;8.736;2022-11-25T04:39:39;3.60;99.90
10459;DHT22;5277;48.722;8.736;2022-11-25T04:42:06;3.60;99.90
10459;DHT22;5277;48.722;8.736;2022-11-25T04:44:50;3.50;99.90
10459;DHT22;5277;48.722;8.736;2022-11-25T04:47:16;3.60;99.90
10459;DHT22;5277;48.722;8.736;2022-11-25T04:49:41;3.50;99.90
10459;DHT22;5277;48.722;8.736;2022-11-25T04:52:07;3.50;99.90
10459;DHT22;5277;48.722;8.736;2022-11-25T04:54:32;3.40;99.90
10459;DHT22;5277;48.722;8.736;2022-11-25T04:56:58;3.30;99.90
10459;DHT22;5277;48.722;8.736;2022-11-25T04:59:23;3.30;99.90
10459;DHT22;5277;48.722;8.736;2022-11-25T05:02:14;3.20;99.90
10459;DHT22;5277;48.722;8.736;2022-11-25T05:04:43;3.20;99.90
10459;DHT22;5277;48.722;8.736;2022-11-25T05:07:09;3.20;99.90
10459;DHT22;5277;48.722;8.736;2022-11-25T05:09:35;3.10;99.90
10459;DHT22;5277;48.722;8.736;2022-11-25T05:12:01;3.10;99.90
10459;DHT22;5277;48.722;8.736;2022-11-25T05:14:27;3.10;99.90
10459;DHT22;5277;48.722;8.736;2022-11-25T05:16:52;3.10;99.90
10459;DHT22;5277;48.722;8.736;2022-11-25T05:19:18;3.10;99.90
10459;DHT22;5277;48.722;8.736;2022-11-25T05:21:43;3.10;99.90
10459;DHT22;5277;48.722;8.736;2022-11-25T05:24:09;3.10;99.90
10459;DHT22;5277;48.722;8.736;2022-11-25T05:26:35;3.00;99.90
10459;DHT22;5277;48.722;8.736;2022-11-25T05:29:00;3.00;99.90
10459;DHT22;5277;48.722;8.736;2022-11-25T05:31:26;3.00;99.90
10459;DHT22;5277;48.722;8.736;2022-11-25T05:33:51;3.00;99.90
10459;DHT22;5277;48.722;8.736;2022-11-25T05:36:17;3.00;99.90
10459;DHT22;5277;48.722;8.736;2022-11-25T05:38:43;3.00;99.90
10459;DHT22;5277;48.722;8.736;2022-11-25T05:41:09;3.00;99.90
10459;DHT22;5277;48.722;8.736;2022-11-25T05:43:35;2.90;99.90
10459;DHT22;5277;48.722;8.736;2022-11-25T05:46:08;2.90;99.90
10459;DHT22;5277;48.722;8.736;2022-11-25T05:48:53;2.80;99.90
10459;DHT22;5277;48.722;8.736;2022-11-25T05:51:19;2.90;99.90
10459;DHT22;5277;48.722;8.736;2022-11-25T05:53:47;2.90;99.90
10459;DHT22;5277;48.722;8.736;2022-11-25T05:56:12;2.90;99.90
10459;DHT22;5277;48.722;8.736;2022-11-25T05:58:38;2.90;99.90
10459;DHT22;5277;48.722;8.736;2022-11-25T06:14:26;2.70;99.90
10459;DHT22;5277;48.722;8.736;2022-11-25T06:20:59;2.60;99.90
10459;DHT22;5277;48.722;8.736;2022-11-25T06:23:41;2.70;99.90
10459;DHT22;5277;48.722;8.736;2022-11-25T06:26:13;2.70;99.90
10459;DHT22;5277;48.722;8.736;2022-11-25T06:28:42;2.70;99.90
10459;DHT22;5277;48.722;8.736;2022-11-25T06:31:17;2.70;99.90
10459;DHT22;5277;48.722;8.736;2022-11-25T06:33:48;2.70;99.90
10459;DHT22;5277;48.722;8.736;2022-11-25T06:36:14;2.70;99.90
10459;DHT22;5277;48.722;8.736;2022-11-25T06:38:47;2.70;99.90
10459;DHT22;5277;48.722;8.736;2022-11-25T06:41:14;2.70;99.90
10459;DHT22;5277;48.722;8.736;2022-11-25T06:43:40;2.60;99.90
10459;DHT22;5277;48.722;8.736;2022-11-25T06:46:14;2.70;99.90
10459;DHT22;5277;48.722;8.736;2022-11-25T06:48:40;2.70;99.90
10459;DHT22;5277;48.722;8.736;2022-11-25T06:51:13;2.90;99.90
10459;DHT22;5277;48.722;8.736;2022-11-25T06:53:40;2.90;99.90
10459;DHT22;5277;48.722;8.736;2022-11-25T06:58:34;3.00;99.90
10459;DHT22;5277;48.722;8.736;2022-11-25T07:01:02;3.00;99.90
10459;DHT22;5277;48.722;8.736;2022-11-25T07:03:28;3.00;99.90
10459;DHT22;5277;48.722;8.736;2022-11-25T07:05:58;3.00;99.90
10459;DHT22;5277;48.722;8.736;2022-11-25T07:08:25;3.10;99.90
10459;DHT22;5277;48.722;8.736;2022-11-25T07:10:51;3.20;99.90
10459;DHT22;5277;48.722;8.736;2022-11-25T07:13:17;3.20;99.90
10459;DHT22;5277;48.722;8.736;2022-11-25T07:15:43;3.20;99.90
10459;DHT22;5277;48.722;8.736;2022-11-25T07:18:08;3.30;99.90
10459;DHT22;5277;48.722;8.736;2022-11-25T07:20:34;3.40;99.90
10459;DHT22;5277;48.722;8.736;2022-11-25T07:22:59;3.40;99.90
10459;DHT22;5277;48.722;8.736;2022-11-25T07:25:25;3.50;99.90
10459;DHT22;5277;48.722;8.736;2022-11-25T07:27:51;3.50;99.90
10459;DHT22;5277;48.722;8.736;2022-11-25T07:30:16;3.50;99.90
10459;DHT22;5277;48.722;8.736;2022-11-25T07:32:42;3.60;99.90
10459;DHT22;5277;48.722;8.736;2022-11-25T07:35:08;3.70;99.90
10459;DHT22;5277;48.722;8.736;2022-11-25T07:37:33;3.60;99.90
10459;DHT22;5277;48.722;8.736;2022-11-25T07:39:59;3.70;99.90
10459;DHT22;5277;48.722;8.736;2022-11-25T07:42:24;3.70;99.90
10459;DHT22;5277;48.722;8.736;2022-11-25T07:44:51;3.70;99.90
10459;DHT22;5277;48.722;8.736;2022-11-25T07:47:16;3.80;99.90
10459;DHT22;5277;48.722;8.736;2022-11-25T07:49:44;3.80;99.90
10459;DHT22;5277;48.722;8.736;2022-11-25T07:52:10;3.80;99.90
10459;DHT22;5277;48.722;8.736;2022-11-25T07:54:35;3.90;99.90
10459;DHT22;5277;48.722;8.736;2022-11-25T07:57:01;3.90;99.90
10459;DHT22;5277;48.722;8.736;2022-11-25T07:59:26;3.90;99.90
10459;DHT22;5277;48.722;8.736;2022-11-25T08:01:53;4.00;99.90
10459;DHT22;5277;48.722;8.736;2022-11-25T08:04:20;4.10;99.90
10459;DHT22;5277;48.722;8.736;2022-11-25T08:06:48;4.10;99.90
10459;DHT22;5277;48.722;8.736;2022-11-25T08:09:16;4.10;99.90
10459;DHT22;5277;48.722;8.736;2022-11-25T08:11:46;4.20;99.90
10459;DHT22;5277;48.722;8.736;2022-11-25T08:14:11;4.20;99.90
10459;DHT22;5277;48.722;8.736;2022-11-25T08:16:37;4.30;99.90
10459;DHT22;5277;48.722;8.736;2022-11-25T08:19:06;4.40;99.90
10459;DHT22;5277;48.722;8.736;2022-11-25T08:21:33;4.40;99.90
10459;DHT22;5277;48.722;8.736;2022-11-25T08:23:58;4.60;99.90
10459;DHT22;5277;48.722;8.736;2022-11-25T08:26:26;4.50;99.90
10459;DHT22;5277;48.722;8.736;2022-11-25T08:28:55;4.60;99.90
10459;DHT22;5277;48.722;8.736;2022-11-25T08:31:23;4.70;99.90
10459;DHT22;5277;48.722;8.736;2022-11-25T08:33:50;4.70;99.90
10459;DHT22;5277;48.722;8.736;2022-11-25T08:36:16;4.80;99.90
10459;DHT22;5277;48.722;8.736;2022-11-25T08:38:44;4.80;99.90
10459;DHT22;5277;48.722;8.736;2022-11-25T08:41:16;4.90;99.90
10459;DHT22;5277;48.722;8.736;2022-11-25T08:43:42;4.90;99.90
10459;DHT22;5277;48.722;8.736;2022-11-25T08:46:14;5.00;99.90
10459;DHT22;5277;48.722;8.736;2022-11-25T08:48:40;5.00;99.90
10459;DHT22;5277;48.722;8.736;2022-11-25T08:51:12;5.00;99.90
10459;DHT22;5277;48.722;8.736;2022-11-25T08:53:39;5.00;99.90
10459;DHT22;5277;48.722;8.736;2022-11-25T08:56:05;5.10;99.90
10459;DHT22;5277;48.722;8.736;2022-11-25T08:58:32;5.10;99.90
10459;DHT22;5277;48.722;8.736;2022-11-25T09:01:10;5.10;99.90
10459;DHT22;5277;48.722;8.736;2022-11-25T09:03:54;5.10;99.90
10459;DHT22;5277;48.722;8.736;2022-11-25T09:06:40;5.20;99.90
10459;DHT22;5277;48.722;8.736;2022-11-25T09:09:21;5.20;99.90
10459;DHT22;5277;48.722;8.736;2022-11-25T09:11:53;5.10;99.90
10459;DHT22;5277;48.722;8.736;2022-11-25T09:14:41;5.30;99.90
10459;DHT22;5277;48.722;8.736;2022-11-25T09:17:20;5.30;99.90
10459;DHT22;5277;48.722;8.736;2022-11-25T09:22:39;5.50;99.90
10459;DHT22;5277;48.722;8.736;2022-11-25T09:25:33;5.50;99.90
10459;DHT22;5277;48.722;8.736;2022-11-25T09:28:09;5.70;99.90
10459;DHT22;5277;48.722;8.736;2022-11-25T09:30:51;5.80;99.90
10459;DHT22;5277;48.722;8.736;2022-11-25T09:33:17;5.80;99.90
10459;DHT22;5277;48.722;8.736;2022-11-25T09:35:44;5.90;99.90
10459;DHT22;5277;48.722;8.736;2022-11-25T09:38:12;5.90;99.90
10459;DHT22;5277;48.722;8.736;2022-11-25T09:43:52;6.20;99.90
10459;DHT22;5277;48.722;8.736;2022-11-25T09:49:38;6.30;99.90
10459;DHT22;5277;48.722;8.736;2022-11-25T09:52:29;6.30;99.90
10459;DHT22;5277;48.722;8.736;2022-11-25T09:55:04;6.40;99.90
10459;DHT22;5277;48.722;8.736;2022-11-25T10:00:24;6.60;99.90
10459;DHT22;5277;48.722;8.736;2022-11-25T10:03:04;6.80;99.90
10459;DHT22;5277;48.722;8.736;2022-11-25T10:05:42;6.90;99.90
10459;DHT22;5277;48.722;8.736;2022-11-25T10:08:26;7.00;99.90
10459;DHT22;5277;48.722;8.736;2022-11-25T10:11:14;7.10;99.90
10459;DHT22;5277;48.722;8.736;2022-11-25T10:16:38;7.20;99.90
10459;DHT22;5277;48.722;8.736;2022-11-25T10:19:29;7.30;99.90
10459;DHT22;5277;48.722;8.736;2022-11-25T10:21:56;7.30;99.90
10459;DHT22;5277;48.722;8.736;2022-11-25T10:24:23;7.50;99.90
10459;DHT22;5277;48.722;8.736;2022-11-25T10:27:00;7.40;99.90
10459;DHT22;5277;48.722;8.736;2022-11-25T10:29:31;7.40;99.90
10459;DHT22;5277;48.722;8.736;2022-11-25T10:32:19;7.50;99.90
10459;DHT22;5277;48.722;8.736;2022-11-25T10:34:51;7.40;99.90
10459;DHT22;5277;48.722;8.736;2022-11-25T10:37:28;7.50;99.90
10459;DHT22;5277;48.722;8.736;2022-11-25T10:39:55;7.50;99.90
10459;DHT22;5277;48.722;8.736;2022-11-25T10:42:24;7.50;99.90
10459;DHT22;5277;48.722;8.736;2022-11-25T10:44:50;7.40;99.90
10459;DHT22;5277;48.722;8.736;2022-11-25T10:52:21;7.40;99.90
10459;DHT22;5277;48.722;8.736;2022-11-25T10:55:13;7.40;99.90
10459;DHT22;5277;48.722;8.736;2022-11-25T10:57:39;7.40;99.90
10459;DHT22;5277;48.722;8.736;2022-11-25T11:00:07;7.40;99.90
10459;DHT22;5277;48.722;8.736;2022-11-25T11:02:46;7.30;99.90
10459;DHT22;5277;48.722;8.736;2022-11-25T11:07:41;7.30;99.90
10459;DHT22;5277;48.722;8.736;2022-11-25T11:10:20;7.30;99.90
10459;DHT22;5277;48.722;8.736;2022-11-25T11:15:22;7.30;99.90
10459;DHT22;5277;48.722;8.736;2022-11-25T11:17:48;7.40;99.90
10459;DHT22;5277;48.722;8.736;2022-11-25T11:20:20;7.40;99.90
10459;DHT22;5277;48.722;8.736;2022-11-25T11:22:55;7.40;99.90
10459;DHT22;5277;48.722;8.736;2022-11-25T11:27:49;7.50;99.90
10459;DHT22;5277;48.722;8.736;2022-11-25T11:30:18;7.60;99.90
10459;DHT22;5277;48.722;8.736;2022-11-25T11:36:06;7.60;99.90
10459;DHT22;5277;48.722;8.736;2022-11-25T11:38:40;7.70;99.90
10459;DHT22;5277;48.722;8.736;2022-11-25T11:41:25;7.80;99.90
10459;DHT22;5277;48.722;8.736;2022-11-25T11:51:56;7.90;99.90
10459;DHT22;5277;48.722;8.736;2022-11-25T11:54:33;7.90;99.90
10459;DHT22;5277;48.722;8.736;2022-11-25T11:57:06;7.90;99.90
10459;DHT22;5277;48.722;8.736;2022-11-25T11:59:47;8.00;99.90
10459;DHT22;5277;48.722;8.736;2022-11-25T12:05:13;8.00;99.90
10459;DHT22;5277;48.722;8.736;2022-11-25T12:07:48;8.00;99.90
10459;DHT22;5277;48.722;8.736;2022-11-25T12:10:29;8.00;99.90
10459;DHT22;5277;48.722;8.736;2022-11-25T12:15:53;8.00;99.90
10459;DHT22;5277;48.722;8.736;2022-11-25T12:18:32;8.10;99.90
10459;DHT22;5277;48.722;8.736;2022-11-25T12:21:04;8.10;99.90
10459;DHT22;5277;48.722;8.736;2022-11-25T12:26:46;8.20;99.90
10459;DHT22;5277;48.722;8.736;2022-11-25T12:29:38;8.20;99.90
10459;DHT22;5277;48.722;8.736;2022-11-25T12:37:43;8.30;99.90
10459;DHT22;5277;48.722;8.736;2022-11-25T12:40:17;8.30;99.90
10459;DHT22;5277;48.722;8.736;2022-11-25T12:42:45;8.30;99.90
10459;DHT22;5277;48.722;8.736;2022-11-25T12:47:42;8.40;99.90
10459;DHT22;5277;48.722;8.736;2022-11-25T12:50:33;8.40;99.90
10459;DHT22;5277;48.722;8.736;2022-11-25T12:53:19;8.40;99.90
10459;DHT22;5277;48.722;8.736;2022-11-25T12:55:51;8.50;99.90
10459;DHT22;5277;48.722;8.736;2022-11-25T13:01:11;8.50;99.90
10459;DHT22;5277;48.722;8.736;2022-11-25T13:07:14;8.70;99.90
10459;DHT22;5277;48.722;8.736;2022-11-25T13:10:31;8.70;99.90
10459;DHT22;5277;48.722;8.736;2022-11-25T13:13:36;8.70;99.90
10459;DHT22;5277;48.722;8.736;2022-11-25T13:16:07;8.70;99.90
10459;DHT22;5277;48.722;8.736;2022-11-25T13:18:38;8.70;99.90
10459;DHT22;5277;48.722;8.736;2022-11-25T13:21:08;8.70;99.90
10459;DHT22;5277;48.722;8.736;2022-11-25T13:23:55;8.70;99.90
10459;DHT22;5277;48.722;8.736;2022-11-25T13:28:53;8.70;99.90
10459;DHT22;5277;48.722;8.736;2022-11-25T13:31:22;8.80;99.90
10459;DHT22;5277;48.722;8.736;2022-11-25T13:36:19;9.00;99.90
10459;DHT22;5277;48.722;8.736;2022-11-25T13:41:40;9.10;99.90
10459;DHT22;5277;48.722;8.736;2022-11-25T13:44:22;9.10;99.90
10459;DHT22;5277;48.722;8.736;2022-11-25T13:46:56;9.00;99.90
10459;DHT22;5277;48.722;8.736;2022-11-25T13:54:54;9.10;99.90
10459;DHT22;5277;48.722;8.736;2022-11-25T13:59:52;9.20;99.90
10459;DHT22;5277;48.722;8.736;2022-11-25T14:11:17;9.30;99.90
10459;DHT22;5277;48.722;8.736;2022-11-25T14:14:27;9.20;99.90
10459;DHT22;5277;48.722;8.736;2022-11-25T14:20:10;9.00;99.90
10459;DHT22;5277;48.722;8.736;2022-11-25T14:25:51;9.10;99.90
10459;DHT22;5277;48.722;8.736;2022-11-25T14:28:24;9.20;99.90
10459;DHT22;5277;48.722;8.736;2022-11-25T14:30:54;9.30;99.90
10459;DHT22;5277;48.722;8.736;2022-11-25T14:33:28;9.30;99.90
10459;DHT22;5277;48.722;8.736;2022-11-25T14:36:04;9.30;99.90
10459;DHT22;5277;48.722;8.736;2022-11-25T14:38:52;9.30;99.90
10459;DHT22;5277;48.722;8.736;2022-11-25T14:41:23;9.40;99.90
10459;DHT22;5277;48.722;8.736;2022-11-25T14:43:54;9.30;99.90
10459;DHT22;5277;48.722;8.736;2022-11-25T14:46:22;9.30;99.90
10459;DHT22;5277;48.722;8.736;2022-11-25T14:49:01;9.30;99.90
10459;DHT22;5277;48.722;8.736;2022-11-25T14:51:41;9.30;99.90
10459;DHT22;5277;48.722;8.736;2022-11-25T14:54:10;9.20;99.90
10459;DHT22;5277;48.722;8.736;2022-11-25T14:59:17;9.10;99.90
10459;DHT22;5277;48.722;8.736;2022-11-25T15:01:52;9.00;99.90
10459;DHT22;5277;48.722;8.736;2022-11-25T15:04:25;9.00;99.90
10459;DHT22;5277;48.722;8.736;2022-11-25T15:06:53;8.80;99.90
10459;DHT22;5277;48.722;8.736;2022-11-25T15:09:41;8.80;99.90
10459;DHT22;5277;48.722;8.736;2022-11-25T15:12:16;8.80;99.90
10459;DHT22;5277;48.722;8.736;2022-11-25T15:14:55;8.60;99.90
10459;DHT22;5277;48.722;8.736;2022-11-25T15:17:30;8.60;99.90
10459;DHT22;5277;48.722;8.736;2022-11-25T15:20:02;8.50;99.90
10459;DHT22;5277;48.722;8.736;2022-11-25T15:22:27;8.30;99.90
10459;DHT22;5277;48.722;8.736;2022-11-25T15:24:54;8.20;99.90
10459;DHT22;5277;48.722;8.736;2022-11-25T15:27:41;8.10;99.90
10459;DHT22;5277;48.722;8.736;2022-11-25T15:30:39;8.00;99.90
10459;DHT22;5277;48.722;8.736;2022-11-25T15:33:09;8.00;99.90
10459;DHT22;5277;48.722;8.736;2022-11-25T15:35:35;8.00;99.90
10459;DHT22;5277;48.722;8.736;2022-11-25T15:41:03;8.10;99.90
10459;DHT22;5277;48.722;8.736;2022-11-25T15:43:30;8.00;99.90
10459;DHT22;5277;48.722;8.736;2022-11-25T15:46:04;8.10;99.90
10459;DHT22;5277;48.722;8.736;2022-11-25T15:48:35;8.00;99.90
10459;DHT22;5277;48.722;8.736;2022-11-25T15:53:57;8.00;99.90
10459;DHT22;5277;48.722;8.736;2022-11-25T15:56:25;7.90;99.90
10459;DHT22;5277;48.722;8.736;2022-11-25T15:58:52;7.90;99.90
10459;DHT22;5277;48.722;8.736;2022-11-25T16:01:18;7.80;99.90
10459;DHT22;5277;48.722;8.736;2022-11-25T16:03:46;7.80;99.90
10459;DHT22;5277;48.722;8.736;2022-11-25T16:06:24;7.70;99.90
10459;DHT22;5277;48.722;8.736;2022-11-25T16:09:01;7.70;99.90
10459;DHT22;5277;48.722;8.736;2022-11-25T16:11:28;7.60;99.90
10459;DHT22;5277;48.722;8.736;2022-11-25T16:14:26;7.60;99.90
10459;DHT22;5277;48.722;8.736;2022-11-25T16:17:09;7.60;99.90
10459;DHT22;5277;48.722;8.736;2022-11-25T16:19:43;7.60;99.90
10459;DHT22;5277;48.722;8.736;2022-11-25T16:22:14;7.60;99.90
10459;DHT22;5277;48.722;8.736;2022-11-25T16:25:01;7.60;99.90
10459;DHT22;5277;48.722;8.736;2022-11-25T16:27:37;7.60;99.90
10459;DHT22;5277;48.722;8.736;2022-11-25T16:30:24;7.70;99.90
10459;DHT22;5277;48.722;8.736;2022-11-25T16:32:52;7.70;99.90
10459;DHT22;5277;48.722;8.736;2022-11-25T16:35:24;7.70;99.90
10459;DHT22;5277;48.722;8.736;2022-11-25T16:37:58;7.80;99.90
10459;DHT22;5277;48.722;8.736;2022-11-25T16:40:26;7.70;99.90
10459;DHT22;5277;48.722;8.736;2022-11-25T16:42:54;7.80;99.90
10459;DHT22;5277;48.722;8.736;2022-11-25T16:45:27;7.70;99.90
10459;DHT22;5277;48.722;8.736;2022-11-25T16:47:56;7.70;99.90
10459;DHT22;5277;48.722;8.736;2022-11-25T16:50:24;7.80;99.90
10459;DHT22;5277;48.722;8.736;2022-11-25T16:52:53;7.70;99.90
10459;DHT22;5277;48.722;8.736;2022-11-25T16:55:19;7.70;99.90
10459;DHT22;5277;48.722;8.736;2022-11-25T16:57:47;7.70;99.90
10459;DHT22;5277;48.722;8.736;2022-11-25T17:00:18;7.70;99.90
10459;DHT22;5277;48.722;8.736;2022-11-25T17:02:44;7.70;99.90
10459;DHT22;5277;48.722;8.736;2022-11-25T17:05:19;7.60;99.90
10459;DHT22;5277;48.722;8.736;2022-11-25T17:07:44;7.50;99.90
10459;DHT22;5277;48.722;8.736;2022-11-25T17:10:11;7.50;99.90
10459;DHT22;5277;48.722;8.736;2022-11-25T17:12:37;7.50;99.90
10459;DHT22;5277;48.722;8.736;2022-11-25T17:15:05;7.50;99.90
10459;DHT22;5277;48.722;8.736;2022-11-25T17:17:33;7.40;99.90
10459;DHT22;5277;48.722;8.736;2022-11-25T17:19:59;7.30;99.90
10459;DHT22;5277;48.722;8.736;2022-11-25T17:22:26;7.30;99.90
10459;DHT22;5277;48.722;8.736;2022-11-25T17:24:52;7.20;99.90
10459;DHT22;5277;48.722;8.736;2022-11-25T17:27:28;7.30;99.90
10459;DHT22;5277;48.722;8.736;2022-11-25T17:29:56;7.20;99.90
10459;DHT22;5277;48.722;8.736;2022-11-25T17:32:22;7.20;99.90
10459;DHT22;5277;48.722;8.736;2022-11-25T17:34:48;7.20;99.90
10459;DHT22;5277;48.722;8.736;2022-11-25T17:37:21;7.10;99.90
10459;DHT22;5277;48.722;8.736;2022-11-25T17:39:48;7.20;99.90
10459;DHT22;5277;48.722;8.736;2022-11-25T17:42:16;7.10;99.90
10459;DHT22;5277;48.722;8.736;2022-11-25T17:44:46;7.10;99.90
10459;DHT22;5277;48.722;8.736;2022-11-25T17:47:14;7.10;99.90
10459;DHT22;5277;48.722;8.736;2022-11-25T17:49:40;7.10;99.90
10459;DHT22;5277;48.722;8.736;2022-11-25T17:52:06;7.20;99.90
10459;DHT22;5277;48.722;8.736;2022-11-25T17:54:32;7.20;99.90
10459;DHT22;5277;48.722;8.736;2022-11-25T17:56:58;7.20;99.90
10459;DHT22;5277;48.722;8.736;2022-11-25T17:59:31;7.20;99.90
10459;DHT22;5277;48.722;8.736;2022-11-25T18:02:20;7.20;99.90
10459;DHT22;5277;48.722;8.736;2022-11-25T18:07:49;7.00;99.90
10459;DHT22;5277;48.722;8.736;2022-11-25T18:10:41;7.00;99.90
10459;DHT22;5277;48.722;8.736;2022-11-25T18:13:51;7.00;99.90
10459;DHT22;5277;48.722;8.736;2022-11-25T18:16:48;6.90;99.90
10459;DHT22;5277;48.722;8.736;2022-11-25T18:19:46;6.80;99.90
10459;DHT22;5277;48.722;8.736;2022-11-25T18:25:19;6.80;99.90
10459;DHT22;5277;48.722;8.736;2022-11-25T18:27:46;6.80;99.90
10459;DHT22;5277;48.722;8.736;2022-11-25T18:30:34;6.80;99.90
10459;DHT22;5277;48.722;8.736;2022-11-25T18:33:20;6.90;99.90
10459;DHT22;5277;48.722;8.736;2022-11-25T18:39:19;6.90;99.90
10459;DHT22;5277;48.722;8.736;2022-11-25T18:41:46;6.90;99.90
10459;DHT22;5277;48.722;8.736;2022-11-25T18:46:44;6.90;99.90
10459;DHT22;5277;48.722;8.736;2022-11-25T18:49:13;6.80;99.90